Rutland, South Dakota
Current Conditions -  °F | °C
As of 11:35 PM on Wednesday 26 Nov 2014 (Local Time) from KMDS Reporting Station
Clear Clear  
Wind Chill: -15°   Ceiling: Unl
Heat Index:   Visibility: 10mi
Dew Point: -4°   Wind: 8mph
Humidity: 85%   Direction: 350°N
Pressure: 30.44"   Gusts: NA
Location:  44.09°N, 96.97°W
Report Text: KMDS 270535Z AUTO 35007KT 10SM CLR M18/M20 A3044 RMK AO2
Loading
Personal Weather Stations






























Interactive Weather Map New forecast layout! Learn more

10-Day Weather Forecast

Advertisements
Track Severe Weather on mobile